地図

経路データ

SID SEASON NUMBER BASIN SUBBASIN NAME ISO_TIME NATURE LAT LON WMO_WIND WMO_PRES WMO_AGENCY TRACK_TYPE DIST2LAND LANDFALL IFLAG USA_AGENCY USA_ATCF_ID USA_LAT USA_LON USA_RECORD USA_STATUS USA_WIND USA_PRES USA_SSHS USA_R34_NE USA_R34_SE USA_R34_SW USA_R34_NW USA_R50_NE USA_R50_SE USA_R50_SW USA_R50_NW USA_R64_NE USA_R64_SE USA_R64_SW USA_R64_NW USA_POCI USA_ROCI USA_RMW USA_EYE TOKYO_LAT TOKYO_LON TOKYO_GRADE TOKYO_WIND TOKYO_PRES TOKYO_R50_DIR TOKYO_R50_LONG TOKYO_R50_SHORT TOKYO_R30_DIR TOKYO_R30_LONG TOKYO_R30_SHORT TOKYO_LAND CMA_LAT CMA_LON CMA_CAT CMA_WIND CMA_PRES HKO_LAT HKO_LON HKO_CAT HKO_WIND HKO_PRES NEWDELHI_LAT NEWDELHI_LON NEWDELHI_GRADE NEWDELHI_WIND NEWDELHI_PRES NEWDELHI_CI NEWDELHI_DP NEWDELHI_POCI REUNION_LAT REUNION_LON REUNION_TYPE REUNION_WIND REUNION_PRES REUNION_TNUM REUNION_CI REUNION_RMW REUNION_R34_NE REUNION_R34_SE REUNION_R34_SW REUNION_R34_NW REUNION_R50_NE REUNION_R50_SE REUNION_R50_SW REUNION_R50_NW REUNION_R64_NE REUNION_R64_SE REUNION_R64_SW REUNION_R64_NW BOM_LAT BOM_LON BOM_TYPE BOM_WIND BOM_PRES BOM_TNUM BOM_CI BOM_RMW BOM_R34_NE BOM_R34_SE BOM_R34_SW BOM_R34_NW BOM_R50_NE BOM_R50_SE BOM_R50_SW BOM_R50_NW BOM_R64_NE BOM_R64_SE BOM_R64_SW BOM_R64_NW BOM_ROCI BOM_POCI BOM_EYE BOM_POS_METHOD BOM_PRES_METHOD NADI_LAT NADI_LON NADI_CAT NADI_WIND NADI_PRES WELLINGTON_LAT WELLINGTON_LON WELLINGTON_WIND WELLINGTON_PRES DS824_LAT DS824_LON DS824_STAGE DS824_WIND DS824_PRES TD9636_LAT TD9636_LON TD9636_STAGE TD9636_WIND TD9636_PRES TD9635_LAT TD9635_LON TD9635_WIND TD9635_PRES TD9635_ROCI NEUMANN_LAT NEUMANN_LON NEUMANN_CLASS NEUMANN_WIND NEUMANN_PRES MLC_LAT MLC_LON MLC_CLASS MLC_WIND MLC_PRES USA_GUST BOM_GUST BOM_GUST_PER REUNION_GUST REUNION_GUST_PER USA_SEAHGT USA_SEARAD_NE USA_SEARAD_SE USA_SEARAD_SW USA_SEARAD_NW STORM_SPEED STORM_DIR
1869245N20288 1869 15 NA NA NOT_NAMED 1869-09-02 06:00:00 TS 20.2000 -71.6000 main 44 44 _____________O -1 20.2000 -71.6000 TD 30 7 330
1869245N20288 1869 15 NA NA NOT_NAMED 1869-09-02 09:00:00 TS 20.5000 -71.7874 main 78 78 _____________P -1 20.5000 -71.7874 TD 30 7 328
1869245N20288 1869 15 NA NA NOT_NAMED 1869-09-02 12:00:00 TS 20.8000 -72.0000 main 113 83 _____________O -1 20.8000 -72.0000 TD 30 7 324
1869245N20288 1869 15 NA NA NOT_NAMED 1869-09-02 15:00:00 TS 21.1000 -72.2500 main 73 56 _____________P -1 21.1000 -72.2500 TD 30 8 322
1869245N20288 1869 15 NA NA NOT_NAMED 1869-09-02 18:00:00 TS 21.4000 -72.5000 main 56 53 _____________O -1 21.4000 -72.5000 TD 30 7 325
1869245N20288 1869 15 NA NA NOT_NAMED 1869-09-02 21:00:00 TS 21.6999 -72.7076 main 63 63 _____________P -1 21.6999 -72.7076 TD 30 7 328
1869245N20288 1869 15 NA NA NOT_NAMED 1869-09-03 00:00:00 TS 22.0000 -72.9000 main 90 90 _____________O -1 22.0000 -72.9000 TD 30 7 329
1869245N20288 1869 15 NA NA NOT_NAMED 1869-09-03 03:00:00 TS 22.3000 -73.1001 main 122 122 _____________P -1 22.3000 -73.1001 TD 30 7 328
1869245N20288 1869 15 NA NA NOT_NAMED 1869-09-03 06:00:00 TS 22.6000 -73.3000 main 156 156 _____________O -1 22.6000 -73.3000 TD 30 7 328
1869245N20288 1869 15 NA NA NOT_NAMED 1869-09-03 09:00:00 TS 22.8925 -73.5001 main 192 192 _____________P -1 22.8925 -73.5001 TD 30 7 328
1869245N20288 1869 15 NA NA NOT_NAMED 1869-09-03 12:00:00 TS 23.2000 -73.7000 main 229 229 _____________O -1 23.2000 -73.7000 TD 30 7 329
1869245N20288 1869 15 NA NA NOT_NAMED 1869-09-03 15:00:00 TS 23.5050 -73.9002 main 267 267 _____________P -1 23.5050 -73.9002 TD 30 8 332
1869245N20288 1869 15 NA NA NOT_NAMED 1869-09-03 18:00:00 TS 23.9000 -74.1000 main 315 315 _____________O -1 23.9000 -74.1000 TD 30 10 340
1869245N20288 1869 15 NA NA NOT_NAMED 1869-09-03 21:00:00 TS 24.4700 -74.2926 main 343 327 _____________P -1 24.4700 -74.2926 TD 30 13 343
1869245N20288 1869 15 NA NA NOT_NAMED 1869-09-04 00:00:00 TS 25.1000 -74.5000 main 329 318 _____________O -1 25.1000 -74.5000 TD 30 13 341
1869245N20288 1869 15 NA NA NOT_NAMED 1869-09-04 03:00:00 TS 25.6500 -74.7501 main 321 320 _____________P -1 25.6500 -74.7501 TD 32 12 338
1869245N20288 1869 15 NA NA NOT_NAMED 1869-09-04 06:00:00 TS 26.2000 -75.0000 main 324 319 _____________O -1 26.2000 -75.0000 TS 35 12 339
1869245N20288 1869 15 NA NA NOT_NAMED 1869-09-04 09:00:00 TS 26.8000 -75.2373 main 338 336 _____________P -1 26.8000 -75.2373 TS 35 13 343
1869245N20288 1869 15 NA NA NOT_NAMED 1869-09-04 12:00:00 TS 27.4000 -75.4000 main 364 364 _____________O -1 27.4000 -75.4000 TS 35 12 352
1869245N20288 1869 15 NA NA NOT_NAMED 1869-09-04 15:00:00 TS 28.0024 -75.4305 main 414 414 _____________P -1 28.0024 -75.4305 TS 37 11 0
1869245N20288 1869 15 NA NA NOT_NAMED 1869-09-04 18:00:00 TS 28.5000 -75.4000 main 458 458 _____________O -1 28.5000 -75.4000 TS 40 8 0
1869245N20288 1869 15 NA NA NOT_NAMED 1869-09-04 21:00:00 TS 28.7950 -75.4000 main 486 486 _____________P -1 28.7950 -75.4000 TS 42 5 2
1869245N20288 1869 15 NA NA NOT_NAMED 1869-09-05 00:00:00 TS 29.0000 -75.4000 main 499 499 _____________O -1 29.0000 -75.4000 TS 45 5 0
1869245N20288 1869 15 NA NA NOT_NAMED 1869-09-05 03:00:00 TS 29.2500 -75.4000 main 503 502 _____________P -1 29.2500 -75.4000 TS 47 5 2
1869245N20288 1869 15 NA NA NOT_NAMED 1869-09-05 06:00:00 TS 29.5000 -75.4000 main 507 507 _____________O -1 29.5000 -75.4000 TS 50 5 2
1869245N20288 1869 15 NA NA NOT_NAMED 1869-09-05 09:00:00 TS 29.7500 -75.4000 main 515 499 _____________P -1 29.7500 -75.4000 TS 52 5 2
1869245N20288 1869 15 NA NA NOT_NAMED 1869-09-05 12:00:00 TS 30.0000 -75.4000 main 499 470 _____________O -1 30.0000 -75.4000 TS 55 5 0
1869245N20288 1869 15 NA NA NOT_NAMED 1869-09-05 15:00:00 TS 30.2725 -75.4000 main 470 451 _____________P -1 30.2725 -75.4000 TS 57 5 2
1869245N20288 1869 15 NA NA NOT_NAMED 1869-09-05 18:00:00 TS 30.5000 -75.4000 main 451 441 _____________O -1 30.5000 -75.4000 TS 60 4 0
1869245N20288 1869 15 NA NA NOT_NAMED 1869-09-05 21:00:00 TS 30.6225 -75.4000 main 441 432 _____________P -1 30.6225 -75.4000 TS 60 2 8
1869245N20288 1869 15 NA NA NOT_NAMED 1869-09-06 00:00:00 TS 30.7000 -75.4000 main 432 423 _____________O -1 30.7000 -75.4000 TS 60 2 0
1869245N20288 1869 15 NA NA NOT_NAMED 1869-09-06 03:00:00 TS 30.8000 -75.4000 main 423 413 _____________P -1 30.8000 -75.4000 TS 65 2 8
1869245N20288 1869 15 NA NA NOT_NAMED 1869-09-06 06:00:00 TS 30.9000 -75.4000 main 413 404 _____________O -1 30.9000 -75.4000 HU 70 2 8
1869245N20288 1869 15 NA NA NOT_NAMED 1869-09-06 09:00:00 TS 31.0075 -75.4000 main 404 395 _____________P -1 31.0075 -75.4000 HU 72 2 8
1869245N20288 1869 15 NA NA NOT_NAMED 1869-09-06 12:00:00 TS 31.1000 -75.4000 main 395 395 _____________O -1 31.1000 -75.4000 HU 75 1 357
1869245N20288 1869 15 NA NA NOT_NAMED 1869-09-06 15:00:00 TS 31.1500 -75.4075 main 387 387 _____________P -1 31.1500 -75.4075 HU 77 1 0
1869245N20288 1869 15 NA NA NOT_NAMED 1869-09-06 18:00:00 TS 31.2000 -75.4000 main 387 369 _____________O -1 31.2000 -75.4000 HU 80 1 16
1869245N20288 1869 15 NA NA NOT_NAMED 1869-09-06 21:00:00 TS 31.2925 -75.3575 main 378 378 _____________P -1 31.2925 -75.3575 HU 85 13 166
1869245N20288 1869 15 NA NA NOT_NAMED 1869-09-07 00:00:00 TS 29.9333 -75.0333 90 hurdat_atl main 528 528 O____________O hurdat_atl AL061869 27.0000 -74.5000 HU 90 2 31.4000 -75.3000 HU 90 18 167
1869245N20288 1869 15 NA NA NOT_NAMED 1869-09-07 03:00:00 TS 29.5013 -74.8775 main 555 555 P____________P AL061869 27.5025 -74.5050 HU 90 2 31.5000 -75.2500 HU 90 5 156
1869245N20288 1869 15 NA NA NOT_NAMED 1869-09-07 06:00:00 TS 29.4400 -74.7800 90 hurdat_atl main 562 562 O____________O hurdat_atl AL061869 28.0000 -74.5000 HU 90 2 31.6000 -75.2000 HU 90 2 69
1869245N20288 1869 15 NA NA NOT_NAMED 1869-09-07 09:00:00 TS 29.5616 -74.6982 main 571 549 P____________P AL061869 28.4925 -74.4723 HU 90 2 31.7000 -75.1500 HU 90 5 14
1869245N20288 1869 15 NA NA NOT_NAMED 1869-09-07 12:00:00 TS 29.9333 -74.6333 90 hurdat_atl main 549 519 O____________O hurdat_atl AL061869 29.0000 -74.4000 HU 90 2 31.8000 -75.1000 HU 90 8 12
1869245N20288 1869 15 NA NA NOT_NAMED 1869-09-07 15:00:00 TS 30.3084 -74.5243 main 519 487 P____________P AL061869 29.5351 -74.2503 HU 90 2 31.8549 -75.0722 HU 90 8 14
1869245N20288 1869 15 NA NA NOT_NAMED 1869-09-07 18:00:00 TS 30.7333 -74.4000 90 hurdat_atl main 487 440 O____________O hurdat_atl AL061869 30.1000 -74.1000 HU 90 2 32.0000 -75.0000 HU 90 9 11
1869245N20288 1869 15 NA NA NOT_NAMED 1869-09-07 21:00:00 TS 31.2366 -74.3169 main 440 387 P____________P AL061869 30.6924 -74.0568 HU 95 2 32.3250 -74.8372 HU 95 11 9
1869245N20288 1869 15 NA NA NOT_NAMED 1869-09-08 00:00:00 TS 31.8000 -74.2000 100 hurdat_atl main 387 353 O____________O hurdat_atl AL061869 31.3000 -74.0000 HU 100 3 32.8000 -74.6000 MH 100 11 15
1869245N20288 1869 15 NA NA NOT_NAMED 1869-09-08 03:00:00 TS 32.3226 -73.9791 main 353 319 P____________P AL061869 31.8027 -73.8147 HU 100 3 33.3626 -74.3077 MH 100 13 18
1869245N20288 1869 15 NA NA NOT_NAMED 1869-09-08 06:00:00 TS 33.0000 -73.7333 100 hurdat_atl main 319 276 O____________O hurdat_atl AL061869 32.5000 -73.6000 HU 100 3 34.0000 -74.0000 MH 100 16 12
1869245N20288 1869 15 NA NA NOT_NAMED 1869-09-08 09:00:00 TS 33.9076 -73.5677 main 269 209 P____________P AL061869 33.5552 -73.4698 HU 100 3 34.6123 -73.7636 MH 100 21 8
1869245N20288 1869 15 NA NA NOT_NAMED 1869-09-08 12:00:00 TS 35.1000 -73.3667 100 hurdat_atl main 205 198 O____________O hurdat_atl AL061869 35.0000 -73.3000 HU 100 3 35.3000 -73.5000 MH 100 26 9
1869245N20288 1869 15 NA NA NOT_NAMED 1869-09-08 15:00:00 TS 36.4624 -73.0928 main 228 205 P____________P AL061869 36.7499 -73.0453 HU 100 3 35.8872 -73.1877 MH 100 32 11
1869245N20288 1869 15 NA NA NOT_NAMED 1869-09-08 18:00:00 TS 38.2000 -72.6333 100 950 hurdat_atl main 206 81 O____________O hurdat_atl AL061869 38.8000 -72.6000 HU 100 950 3 37.0000 -72.7000 MH 100 950 40 13
1869245N20288 1869 15 NA NA NOT_NAMED 1869-09-08 21:00:00 TS 40.3923 -71.8937 100 963 hurdat_atl main 73 58 O____________P hurdat_atl AL061869 41.0000 -71.9000 L HU 100 963 3 39.1770 -71.8810 MH 90 961 43 15
1869245N20288 1869 15 NA NA NOT_NAMED 1869-09-08 22:00:00 TS 40.9471 -71.6530 100 965 hurdat_atl main 47 0 O____________P hurdat_atl AL061869 41.4000 -71.7000 L HU 100 965 3 40.0414 -71.5589 MH 86 965 43 17
1869245N20288 1869 15 NA NA NOT_NAMED 1869-09-09 00:00:00 TS 42.4667 -71.0333 80 973 hurdat_atl main 0 0 O____________O hurdat_atl AL061869 42.8000 -71.1000 HU 80 973 1 41.8000 -70.9000 HU 80 973 48 17
1869245N20288 1869 15 NA NA NOT_NAMED 1869-09-09 03:00:00 TS 44.7379 -70.0437 main 0 0 P____________P AL061869 44.9888 -70.0748 HU 65 1 44.2361 -69.9814 HU 65 46 18
1869245N20288 1869 15 NA NA NOT_NAMED 1869-09-09 06:00:00 TS 46.8333 -69.0333 50 hurdat_atl main 0 O____________O hurdat_atl AL061869 47.0000 -69.0000 TS 50 0 46.5000 -69.1000 TS 50 44 18

IBTrACS Databaseについて

本データベースは、米国NOAAが公開する1842年以降の世界の熱帯低気圧のベストトラックデータアーカイブInternational Best Track Archive for Climate Stewardship (IBTrACS)を、ウェブで閲覧しやすい形式に変換したものです。

最終更新日:2021-12-06